This is the latest recevied weather packets stored in our database for station/object K7YVO. If no packets are shown the sender has not sent any weather packets the latest 10 day(s).
| Time | Temp. | Humidity | Pressure | Rain* | Wind** | Luminosity | Snow |
|---|---|---|---|---|---|---|---|
| 1777764627 | 20.56° C | 61% | 1014.3 hPa | 0 mm | - | 274 W/m² | - |
| 1777764323 | 21.11° C | 60% | 1014.2 hPa | 0 mm | - | 263 W/m² | - |
| 1777763718 | 20.56° C | 61% | 1014.2 hPa | 0 mm | - | 332 W/m² | - |
| 1777763114 | 20.56° C | 62% | 1014.5 hPa | 0 mm | - | 296 W/m² | - |
| 1777761300 | 21.11° C | 60% | 1014.8 hPa | 0 mm | - | 456 W/m² | - |
| 1777760998 | 21.11° C | 61% | 1014.7 hPa | 0 mm | - | 592 W/m² | - |
| 1777760695 | 20.56° C | 63% | 1014.8 hPa | 0 mm | - | 623 W/m² | - |
| 1777760391 | 22.22° C | 56% | 1014.8 hPa | 0 mm | - | 617 W/m² | - |
| 1777760087 | 20.56° C | 61% | 1014.8 hPa | 0 mm | - | 594 W/m² | - |
| 1777759784 | 20° C | 64% | 1015.2 hPa | 0 mm | - | 628 W/m² | - |
| 1777759480 | 19.44° C | 63% | 1015.2 hPa | 0 mm | - | 675 W/m² | - |
| 1777759177 | 19.44° C | 63% | 1015.4 hPa | 0 mm | - | 626 W/m² | - |
| 1777758874 | 19.44° C | 63% | 1015.3 hPa | 0 mm | - | 664 W/m² | - |
| 1777758571 | 20° C | 63% | 1015.3 hPa | 0 mm | - | 677 W/m² | - |
| 1777758268 | 19.44° C | 65% | 1015.4 hPa | 0 mm | - | 608 W/m² | - |
| 1777757662 | 18.33° C | 68% | 1015.5 hPa | 0 mm | - | 594 W/m² | - |
| 1777757361 | 18.33° C | 68% | 1015.6 hPa | 0 mm | - | 646 W/m² | - |
| 1777757059 | 18.33° C | 68% | 1015.8 hPa | 0 mm | - | 717 W/m² | - |
| 1777756756 | 17.78° C | 68% | 1015.8 hPa | 0 mm | - | 725 W/m² | - |
| 1777756149 | 17.78° C | 69% | 1015.9 hPa | 0 mm | - | 675 W/m² | - |
| 1777755846 | 17.22° C | 68% | 1016 hPa | 0 mm | - | 723 W/m² | - |
| 1777755543 | 17.78° C | 67% | 1016.2 hPa | 0 mm | - | 761 W/m² | - |
| 1777755239 | 17.22° C | 70% | 1016.3 hPa | 0 mm | - | 679 W/m² | - |
| 1777754331 | 16.11° C | 73% | 1016.3 hPa | 0 mm | - | 750 W/m² | - |
| 1777753724 | 16.67° C | 72% | 1016.6 hPa | 0 mm | - | 725 W/m² | - |
* Rain latest hour (hover to see other rain measurements)
** Current wind speed in m/s (hover to see current wind gust speed)